createdAt,value
2022-12-27T00:01:32.058Z,102246.38
2022-12-27T00:03:58.742Z,102249.63
2022-12-27T00:06:26.926Z,102255.72
2022-12-27T00:08:54.424Z,102258.44
2022-12-27T00:11:24.646Z,102255.09
2022-12-27T00:13:51.788Z,102260.31
2022-12-27T00:16:20.871Z,102247.41
2022-12-27T00:18:49.195Z,102250.00
2022-12-27T00:21:16.986Z,102249.50
2022-12-27T00:23:46.810Z,102249.56
2022-12-27T00:26:22.398Z,102251.34
2022-12-27T00:28:49.677Z,102255.72
2022-12-27T00:31:17.810Z,102257.38
2022-12-27T00:33:46.480Z,102264.16
2022-12-27T00:36:17.097Z,102253.75
2022-12-27T00:38:43.749Z,102260.63
2022-12-27T00:41:10.829Z,102257.94
2022-12-27T00:43:37.655Z,102262.28
2022-12-27T00:46:05.020Z,102267.41
2022-12-27T00:48:31.739Z,102266.44
2022-12-27T00:51:04.988Z,102276.66
2022-12-27T00:53:32.599Z,102268.66
2022-12-27T00:55:59.701Z,102275.41
2022-12-27T00:58:26.322Z,102276.91
2022-12-27T01:00:53.402Z,102275.94
2022-12-27T01:03:20.687Z,102284.59
2022-12-27T01:05:47.327Z,102279.38
2022-12-27T01:08:13.955Z,102281.34
2022-12-27T01:10:41.365Z,102289.34
2022-12-27T01:13:08.201Z,102301.34
2022-12-27T01:15:34.686Z,102301.16
2022-12-27T01:18:01.305Z,102312.91
2022-12-27T01:20:27.850Z,102306.28
2022-12-27T01:22:54.901Z,102316.16
2022-12-27T01:25:21.581Z,102318.25
2022-12-27T01:27:48.106Z,102307.31
2022-12-27T01:30:14.686Z,102316.16
2022-12-27T01:32:41.240Z,102306.91
2022-12-27T01:35:08.129Z,102321.19
2022-12-27T01:37:34.756Z,102322.28
2022-12-27T01:40:01.421Z,102329.28
2022-12-27T01:42:46.611Z,102331.78
2022-12-27T01:45:17.837Z,102336.69
2022-12-27T01:47:53.420Z,102346.69
2022-12-27T01:50:58.932Z,102357.75
2022-12-27T01:53:25.393Z,102362.72
2022-12-27T01:56:06.065Z,102356.59
2022-12-27T01:58:36.763Z,102352.09
2022-12-27T02:01:09.761Z,102341.88
2022-12-27T02:03:41.521Z,102354.91
2022-12-27T02:06:10.994Z,102365.13
2022-12-27T02:08:48.911Z,102358.78
2022-12-27T02:11:17.660Z,102363.78
2022-12-27T02:13:46.328Z,102359.31
2022-12-27T02:16:17.651Z,102363.56
2022-12-27T02:18:45.391Z,102358.38
2022-12-27T02:21:20.712Z,102355.88
2022-12-27T02:24:06.927Z,102350.75
2022-12-27T02:26:53.558Z,102356.91
2022-12-27T02:29:37.708Z,102356.78
2022-12-27T02:32:18.851Z,102348.97
2022-12-27T02:35:27.855Z,102354.31
2022-12-27T02:38:08.963Z,102374.81
2022-12-27T02:40:57.592Z,102380.78
2022-12-27T02:43:43.776Z,102387.31
2022-12-27T02:46:39.463Z,102386.38
2022-12-27T02:49:47.971Z,102384.84
2022-12-27T02:53:04.025Z,102386.06
2022-12-27T02:56:08.258Z,102387.34
2022-12-27T02:58:53.006Z,102394.19
2022-12-27T03:01:59.212Z,102405.56
2022-12-27T03:04:50.361Z,102406.72
2022-12-27T03:07:26.404Z,102399.41
2022-12-27T03:10:27.541Z,102398.03
2022-12-27T03:13:17.660Z,102388.88
2022-12-27T03:16:05.685Z,102392.69
2022-12-27T03:18:54.109Z,102386.75
2022-12-27T03:21:47.459Z,102387.69
2022-12-27T03:24:32.969Z,102390.19
2022-12-27T03:27:02.115Z,102393.00
2022-12-27T03:29:47.684Z,102384.56
2022-12-27T03:32:41.707Z,102386.53
2022-12-27T03:35:15.728Z,102389.19
2022-12-27T03:38:05.497Z,102394.53
2022-12-27T03:41:06.989Z,102399.91
2022-12-27T03:43:36.142Z,102391.47
2022-12-27T03:46:31.002Z,102402.81
2022-12-27T03:49:09.944Z,102404.59
2022-12-27T03:51:41.819Z,102402.00
2022-12-27T03:54:18.854Z,102405.44
2022-12-27T03:56:45.456Z,102402.81
2022-12-27T03:59:12.656Z,102404.59
2022-12-27T04:01:39.362Z,102413.22
2022-12-27T04:04:05.994Z,102418.97
2022-12-27T04:06:32.675Z,102416.38
2022-12-27T04:09:18.078Z,102429.31
2022-12-27T04:12:03.106Z,102417.94
2022-12-27T04:14:47.843Z,102416.47
2022-12-27T04:17:33.346Z,102411.47
2022-12-27T04:20:18.366Z,102410.72
2022-12-27T04:23:03.885Z,102417.69
2022-12-27T04:25:49.063Z,102419.28
2022-12-27T04:28:34.230Z,102424.28
2022-12-27T04:31:19.514Z,102425.13
2022-12-27T04:34:04.641Z,102427.72
2022-12-27T04:36:31.202Z,102431.25
2022-12-27T04:38:57.772Z,102428.53
2022-12-27T04:41:43.030Z,102436.66
2022-12-27T04:44:28.062Z,102426.44
2022-12-27T04:47:13.238Z,102443.00
2022-12-27T04:49:58.093Z,102429.34
2022-12-27T04:52:44.033Z,102425.09
2022-12-27T04:55:29.946Z,102423.69
2022-12-27T04:57:58.481Z,102420.34
2022-12-27T05:00:47.183Z,102434.41
2022-12-27T05:03:18.028Z,102436.06
2022-12-27T05:05:46.253Z,102436.16
2022-12-27T05:08:33.524Z,102430.66
2022-12-27T05:11:19.126Z,102438.09
2022-12-27T05:14:00.948Z,102442.16
2022-12-27T05:16:42.010Z,102449.75
2022-12-27T05:19:10.430Z,102455.50
2022-12-27T05:21:38.581Z,102452.72
2022-12-27T05:24:24.147Z,102460.59
2022-12-27T05:26:50.655Z,102456.53
2022-12-27T05:29:17.197Z,102458.69
2022-12-27T05:31:43.803Z,102464.09
2022-12-27T05:34:10.271Z,102458.34
2022-12-27T05:36:36.834Z,102472.19
2022-12-27T05:39:03.423Z,102473.94
2022-12-27T05:41:29.968Z,102477.56
2022-12-27T05:44:02.078Z,102479.34
2022-12-27T05:46:33.280Z,102468.09
2022-12-27T05:48:59.890Z,102480.16
2022-12-27T05:51:26.469Z,102478.44
2022-12-27T05:53:53.098Z,102477.50
2022-12-27T05:56:21.239Z,102477.56
2022-12-27T05:58:48.474Z,102483.41
2022-12-27T06:01:17.662Z,102485.19
2022-12-27T06:03:45.678Z,102495.53
2022-12-27T06:06:13.320Z,102492.81
2022-12-27T06:08:40.990Z,102491.97
2022-12-27T06:11:16.284Z,102491.22
2022-12-27T06:13:44.516Z,102491.31
2022-12-27T06:16:12.734Z,102497.38
2022-12-27T06:18:40.715Z,102505.28
2022-12-27T06:21:20.453Z,102514.09
2022-12-27T06:23:48.348Z,102500.56
2022-12-27T06:26:19.712Z,102500.56
2022-12-27T06:28:46.503Z,102502.41
2022-12-27T06:31:13.117Z,102502.59
2022-12-27T06:33:39.624Z,102500.81
2022-12-27T06:36:14.804Z,102506.13
2022-12-27T06:38:41.742Z,102519.22
2022-12-27T06:41:13.439Z,102511.44
2022-12-27T06:43:40.587Z,102517.28
2022-12-27T06:46:16.739Z,102530.38
2022-12-27T06:48:45.239Z,102523.56
2022-12-27T06:51:13.552Z,102532.41
2022-12-27T06:53:40.647Z,102535.09
2022-12-27T06:56:10.350Z,102536.97
2022-12-27T06:58:37.140Z,102542.34
2022-12-27T07:01:14.608Z,102540.47
2022-12-27T07:03:41.337Z,102536.03
2022-12-27T07:06:09.705Z,102539.28
2022-12-27T07:08:37.273Z,102540.13
2022-12-27T07:11:07.475Z,102544.66
2022-12-27T07:13:40.763Z,102546.78
2022-12-27T07:16:09.135Z,102547.75
2022-12-27T07:18:35.776Z,102541.81
2022-12-27T07:21:13.793Z,102537.63
2022-12-27T07:23:40.988Z,102549.59
2022-12-27T07:26:11.601Z,102545.97
2022-12-27T07:28:39.371Z,102551.16
2022-12-27T07:31:18.667Z,102556.19
2022-12-27T07:33:45.923Z,102554.34
2022-12-27T07:36:18.550Z,102561.28
2022-12-27T07:38:45.447Z,102557.03
2022-12-27T07:41:12.843Z,102558.69
2022-12-27T07:43:39.683Z,102563.72
2022-12-27T07:46:18.204Z,102568.00
2022-12-27T07:48:45.225Z,102562.97
2022-12-27T07:51:12.381Z,102570.84
2022-12-27T07:53:39.608Z,102570.78
2022-12-27T07:56:18.869Z,102587.22
2022-12-27T07:58:49.840Z,102595.97
2022-12-27T08:01:18.299Z,102592.41
2022-12-27T08:03:45.843Z,102595.03
2022-12-27T08:06:30.327Z,102595.84
2022-12-27T08:09:03.311Z,102607.09
2022-12-27T08:11:30.739Z,102613.88
2022-12-27T08:13:57.428Z,102607.84
2022-12-27T08:16:26.166Z,102611.09
2022-12-27T08:18:56.262Z,102607.66
2022-12-27T08:21:23.733Z,102606.72
2022-12-27T08:23:50.563Z,102605.81
2022-12-27T08:26:17.161Z,102615.19
2022-12-27T08:28:43.676Z,102618.63
2022-12-27T08:31:12.040Z,102615.91
2022-12-27T08:33:39.255Z,102620.94
2022-12-27T08:36:53.430Z,102616.69
2022-12-27T08:38:55.497Z,102625.22
2022-12-27T08:41:22.365Z,102618.28
2022-12-27T08:43:49.055Z,102610.25
2022-12-27T08:46:15.807Z,102614.56
2022-12-27T08:48:42.429Z,102611.94
2022-12-27T08:51:13.714Z,102609.16
2022-12-27T08:53:42.189Z,102611.66
2022-12-27T08:56:08.928Z,102613.31
2022-12-27T08:58:35.798Z,102621.97
2022-12-27T09:01:07.299Z,102613.16
2022-12-27T09:03:34.182Z,102609.53
2022-12-27T09:06:18.242Z,102605.06
2022-12-27T09:08:46.998Z,102604.88
2022-12-27T09:11:14.760Z,102607.41
2022-12-27T09:13:42.157Z,102615.94
2022-12-27T09:16:14.581Z,102622.81
2022-12-27T09:18:42.537Z,102624.38
2022-12-27T09:21:11.684Z,102625.22
2022-12-27T09:23:39.527Z,102631.06
2022-12-27T09:26:15.285Z,102631.84
2022-12-27T09:28:42.611Z,102629.97
2022-12-27T09:31:10.669Z,102626.44
2022-12-27T09:33:38.270Z,102622.91
2022-12-27T09:36:26.617Z,102624.50
2022-12-27T09:38:54.499Z,102623.63
2022-12-27T09:44:35.187Z,102637.03
2022-12-27T09:47:11.132Z,102633.19
2022-12-27T09:49:45.195Z,102641.56
2022-12-27T09:52:11.765Z,102636.91
2022-12-27T09:55:05.311Z,102632.22
2022-12-27T09:57:39.030Z,102641.44
2022-12-27T10:00:16.015Z,102639.56
2022-12-27T10:02:46.515Z,102628.97
2022-12-27T10:05:32.435Z,102628.66
2022-12-27T10:08:10.977Z,102631.19
2022-12-27T10:11:06.702Z,102638.81
2022-12-27T10:13:56.749Z,102641.94
2022-12-27T10:16:34.768Z,102637.50
2022-12-27T10:19:16.485Z,102644.25
2022-12-27T10:22:02.441Z,102645.72
2022-12-27T10:24:50.585Z,102644.63
2022-12-27T10:27:26.462Z,102655.56
2022-12-27T10:29:54.849Z,102660.19
2022-12-27T10:32:22.425Z,102662.97
2022-12-27T10:34:57.873Z,102653.38
2022-12-27T10:37:24.655Z,102651.94
2022-12-27T10:39:51.389Z,102644.34
2022-12-27T10:42:42.798Z,102643.63
2022-12-27T10:45:29.881Z,102643.63
2022-12-27T10:47:59.853Z,102642.56
2022-12-27T10:50:29.377Z,102644.47
2022-12-27T10:52:57.871Z,102642.03
2022-12-27T10:55:33.360Z,102648.84
2022-12-27T10:58:20.635Z,102643.09
2022-12-27T11:00:57.458Z,102646.88
2022-12-27T11:03:26.228Z,102648.13
2022-12-27T11:06:02.424Z,102647.28
2022-12-27T11:08:30.266Z,102637.81
2022-12-27T11:11:15.738Z,102638.63
2022-12-27T11:13:42.737Z,102636.66
2022-12-27T11:16:35.091Z,102628.72
2022-12-27T11:19:03.247Z,102625.69
2022-12-27T11:21:31.133Z,102621.50
2022-12-27T11:24:01.126Z,102615.31
2022-12-27T11:26:40.677Z,102612.72
2022-12-27T11:29:16.805Z,102614.25
2022-12-27T11:31:48.378Z,102611.56
2022-12-27T11:34:19.036Z,102615.34
2022-12-27T11:37:02.541Z,102604.81
2022-12-27T11:39:48.505Z,102614.72
2022-12-27T11:42:31.536Z,102615.00
2022-12-27T11:45:01.044Z,102604.09
2022-12-27T11:47:53.792Z,102603.75
2022-12-27T11:50:48.239Z,102596.19
2022-12-27T11:53:26.930Z,102599.50
2022-12-27T11:56:20.832Z,102605.19
2022-12-27T11:59:25.745Z,102609.81
2022-12-27T12:02:13.856Z,102615.28
2022-12-27T12:04:59.007Z,102620.16
2022-12-27T12:07:47.651Z,102607.94
2022-12-27T12:10:16.986Z,102603.53
2022-12-27T12:13:02.004Z,102601.03
2022-12-27T12:15:36.813Z,102591.88
2022-12-27T12:18:42.836Z,102582.56
2022-12-27T12:21:25.689Z,102588.84
2022-12-27T12:24:07.404Z,102580.16
2022-12-27T12:26:57.034Z,102569.69
2022-12-27T12:29:44.690Z,102566.88
2022-12-27T12:32:20.258Z,102569.16
2022-12-27T12:34:59.241Z,102574.16
2022-12-27T12:37:31.869Z,102559.69
2022-12-27T12:40:13.588Z,102553.97
2022-12-27T12:43:14.330Z,102548.41
2022-12-27T12:46:07.183Z,102536.41
2022-12-27T12:48:33.850Z,102538.78
2022-12-27T12:51:15.820Z,102541.16
2022-12-27T12:54:06.802Z,102544.63
2022-12-27T12:57:12.385Z,102537.47
2022-12-27T12:59:51.116Z,102528.09
2022-12-27T13:02:26.950Z,102516.88
2022-12-27T13:05:15.524Z,102507.47
2022-12-27T13:07:51.044Z,102507.63
2022-12-27T13:10:47.032Z,102505.72
2022-12-27T13:13:31.850Z,102499.53
2022-12-27T13:16:23.359Z,102492.38
2022-12-27T13:19:08.741Z,102487.50
2022-12-27T13:21:59.840Z,102480.72
2022-12-27T13:24:46.226Z,102486.22
2022-12-27T13:27:36.125Z,102483.00
2022-12-27T13:30:18.553Z,102480.63
2022-12-27T13:32:51.377Z,102476.34
2022-12-27T13:35:55.757Z,102472.19
2022-12-27T13:38:49.770Z,102467.63
2022-12-27T13:41:29.824Z,102471.13
2022-12-27T13:44:36.292Z,102467.41
2022-12-27T13:47:21.341Z,102453.25
2022-12-27T13:50:15.690Z,102449.44
2022-12-27T13:53:17.171Z,102459.31
2022-12-27T13:56:14.620Z,102439.09
2022-12-27T13:58:59.274Z,102426.00
2022-12-27T14:01:29.192Z,102426.13
2022-12-27T14:04:17.975Z,102424.47
2022-12-27T14:07:12.398Z,102416.59
2022-12-27T14:09:57.831Z,102417.56
2022-12-27T14:12:45.748Z,102408.16
2022-12-27T14:15:18.520Z,102416.16
2022-12-27T14:18:12.857Z,102404.81
2022-12-27T14:20:54.750Z,102410.31
2022-12-27T14:23:36.614Z,102409.75
2022-12-27T14:26:24.952Z,102412.47
2022-12-27T14:29:28.572Z,102413.56
2022-12-27T14:32:09.540Z,102418.88
2022-12-27T14:34:36.029Z,102414.84
2022-12-27T14:37:08.739Z,102410.56
2022-12-27T14:40:13.036Z,102401.03
2022-12-27T14:43:01.487Z,102397.84
2022-12-27T14:45:57.889Z,102406.63
2022-12-27T14:48:59.152Z,102405.81
2022-12-27T14:54:36.791Z,102401.78
2022-12-27T14:57:15.562Z,102403.66
2022-12-27T14:59:53.529Z,102394.16
2022-12-27T15:03:01.643Z,102388.09
2022-12-27T15:05:37.043Z,102387.38
2022-12-27T15:08:22.028Z,102384.91
2022-12-27T15:11:33.003Z,102372.78
2022-12-27T15:14:27.245Z,102376.44
2022-12-27T15:17:24.834Z,102375.13
2022-12-27T15:20:09.475Z,102378.81
2022-12-27T15:23:17.777Z,102386.16
2022-12-27T15:25:53.720Z,102373.34
2022-12-27T15:28:36.814Z,102382.94
2022-12-27T15:31:19.739Z,102390.22
2022-12-27T15:33:58.747Z,102389.38
2022-12-27T15:36:40.122Z,102384.13
2022-12-27T15:39:35.580Z,102393.75
2022-12-27T15:42:14.454Z,102395.56
2022-12-27T15:45:00.553Z,102392.09
2022-12-27T15:47:36.164Z,102389.50
2022-12-27T15:50:17.963Z,102389.63
2022-12-27T15:53:40.308Z,102380.81
2022-12-27T15:56:20.581Z,102366.91
2022-12-27T15:59:25.655Z,102358.34
2022-12-27T16:02:24.496Z,102368.94
2022-12-27T16:04:53.812Z,102358.59
2022-12-27T16:07:38.914Z,102367.38
2022-12-27T16:10:30.056Z,102367.25
2022-12-27T16:13:11.584Z,102350.75
2022-12-27T16:15:44.825Z,102362.03
2022-12-27T16:18:17.785Z,102372.47
2022-12-27T16:21:21.356Z,102367.16
2022-12-27T16:23:47.783Z,102367.97
2022-12-27T16:26:19.676Z,102372.38
2022-12-27T16:29:03.043Z,102367.84
2022-12-27T16:31:32.554Z,102368.72
2022-12-27T16:34:19.274Z,102363.34
2022-12-27T16:36:50.990Z,102360.59
2022-12-27T16:39:36.340Z,102358.84
2022-12-27T16:42:06.585Z,102357.88
2022-12-27T16:44:53.317Z,102354.44
2022-12-27T16:47:40.881Z,102362.16
2022-12-27T16:50:42.007Z,102356.94
2022-12-27T16:53:23.466Z,102356.69
2022-12-27T16:56:02.028Z,102360.13
2022-12-27T16:58:31.550Z,102356.56
2022-12-27T17:01:00.817Z,102353.94
2022-12-27T17:03:36.277Z,102345.19
2022-12-27T17:06:38.023Z,102332.94
2022-12-27T17:09:10.875Z,102328.53
2022-12-27T17:11:53.214Z,102326.59
2022-12-27T17:14:27.915Z,102313.53
2022-12-27T17:17:02.937Z,102306.53
2022-12-27T17:19:39.123Z,102296.09
2022-12-27T17:22:10.844Z,102299.63
2022-12-27T17:24:37.448Z,102291.91
2022-12-27T17:27:42.602Z,102284.31
2022-12-27T17:30:36.611Z,102277.44
2022-12-27T17:33:47.793Z,102281.84
2022-12-27T17:36:28.892Z,102279.31
2022-12-27T17:39:10.655Z,102276.84
2022-12-27T17:42:36.897Z,102265.66
2022-12-27T17:45:31.194Z,102256.75
2022-12-27T17:48:16.067Z,102253.19
2022-12-27T17:50:44.482Z,102254.72
2022-12-27T17:53:29.647Z,102263.25
2022-12-27T17:56:19.278Z,102257.78
2022-12-27T17:58:46.278Z,102260.16
2022-12-27T18:01:13.311Z,102261.00
2022-12-27T18:03:45.260Z,102263.84
2022-12-27T18:06:12.601Z,102256.28
2022-12-27T18:08:40.200Z,102244.50
2022-12-27T18:11:10.388Z,102248.19
2022-12-27T18:13:41.198Z,102249.16
2022-12-27T18:16:19.096Z,102248.44
2022-12-27T18:18:49.025Z,102240.13
2022-12-27T18:21:26.054Z,102231.59
2022-12-27T18:23:53.960Z,102238.72
2022-12-27T18:26:38.810Z,102227.66
2022-12-27T18:29:06.319Z,102219.81
2022-12-27T18:31:36.043Z,102226.00
2022-12-27T18:34:23.374Z,102225.28
2022-12-27T18:37:09.291Z,102210.56
2022-12-27T18:39:40.275Z,102215.06
2022-12-27T18:42:18.455Z,102200.34
2022-12-27T18:44:49.584Z,102209.97
2022-12-27T18:47:23.369Z,102197.03
2022-12-27T18:49:59.122Z,102188.59
2022-12-27T18:52:45.419Z,102185.28
2022-12-27T18:55:20.755Z,102175.06
2022-12-27T18:57:48.405Z,102173.53
2022-12-27T19:00:22.058Z,102168.41
2022-12-27T19:02:50.459Z,102167.81
2022-12-27T19:05:19.986Z,102170.66
2022-12-27T19:07:59.285Z,102167.38
2022-12-27T19:10:28.657Z,102158.69
2022-12-27T19:12:56.163Z,102153.59
2022-12-27T19:15:28.391Z,102165.94
2022-12-27T19:18:02.037Z,102160.13
2022-12-27T19:20:31.745Z,102161.06
2022-12-27T19:23:01.855Z,102157.63
2022-12-27T19:25:33.574Z,102156.09
2022-12-27T19:28:10.554Z,102152.75
2022-12-27T19:30:41.333Z,102146.00
2022-12-27T19:33:29.203Z,102137.31
2022-12-27T19:35:56.598Z,102140.91
2022-12-27T19:38:26.904Z,102135.09
2022-12-27T19:41:02.801Z,102133.44
2022-12-27T19:43:39.201Z,102129.03
2022-12-27T19:46:05.855Z,102127.25
2022-12-27T19:48:32.884Z,102109.66
2022-12-27T19:50:59.664Z,102107.63
2022-12-27T19:53:32.866Z,102112.88
2022-12-27T19:56:01.964Z,102110.16
2022-12-27T19:58:30.689Z,102104.94
2022-12-27T20:00:57.853Z,102097.09
2022-12-27T20:03:25.000Z,102096.28
2022-12-27T20:06:14.687Z,102089.13
2022-12-27T20:08:44.933Z,102094.34
2022-12-27T20:11:19.661Z,102082.13
2022-12-27T20:13:46.271Z,102078.56
2022-12-27T20:16:15.354Z,102068.94
2022-12-27T20:18:43.199Z,102072.25
2022-12-27T20:21:18.341Z,102070.50
2022-12-27T20:23:46.131Z,102073.81
2022-12-27T20:26:16.849Z,102058.13
2022-12-27T20:28:43.590Z,102059.19
2022-12-27T20:31:12.683Z,102053.97
2022-12-27T20:33:39.377Z,102058.13
2022-12-27T20:36:06.698Z,102049.59
2022-12-27T20:38:34.080Z,102047.69
2022-12-27T20:41:13.154Z,102040.56
2022-12-27T20:43:40.220Z,102039.75
2022-12-27T20:46:09.311Z,102041.38
2022-12-27T20:48:40.761Z,102042.09
2022-12-27T20:51:09.247Z,102037.69
2022-12-27T20:53:35.894Z,102030.56
2022-12-27T20:56:04.831Z,102036.63
2022-12-27T20:58:32.845Z,102036.50
2022-12-27T21:01:09.029Z,102030.44
2022-12-27T21:03:37.172Z,102033.03
2022-12-27T21:06:15.245Z,102017.50
2022-12-27T21:08:47.826Z,102015.63
2022-12-27T21:11:17.240Z,102018.22
2022-12-27T21:13:44.831Z,102014.66
2022-12-27T21:16:13.854Z,102016.31
2022-12-27T21:18:40.771Z,102010.25
2022-12-27T21:21:11.167Z,101999.81
2022-12-27T21:23:38.525Z,102007.63
2022-12-27T21:26:10.550Z,102006.69
2022-12-27T21:28:37.051Z,101995.28
2022-12-27T21:31:05.276Z,101994.44
2022-12-27T21:33:33.843Z,101999.66
2022-12-27T21:36:01.861Z,101995.28
2022-12-27T21:38:29.071Z,101984.84
2022-12-27T21:41:07.515Z,101982.91
2022-12-27T21:43:34.455Z,101965.44
2022-12-27T21:46:13.122Z,101967.97
2022-12-27T21:48:39.726Z,101962.84
2022-12-27T21:51:15.690Z,101964.38
2022-12-27T21:53:43.100Z,101960.22
2022-12-27T21:56:14.865Z,101957.63
2022-12-27T21:58:43.473Z,101954.06
2022-12-27T22:01:20.088Z,101947.16
2022-12-27T22:03:50.399Z,101942.91
2022-12-27T22:06:28.701Z,101935.22
2022-12-27T22:08:58.091Z,101940.44
2022-12-27T22:11:27.462Z,101924.75
2022-12-27T22:13:54.141Z,101934.34
2022-12-27T22:16:25.947Z,101922.16
2022-12-27T22:18:53.370Z,101917.84
2022-12-27T22:21:23.458Z,101912.63
2022-12-27T22:23:52.244Z,101908.38
2022-12-27T22:26:22.839Z,101915.25
2022-12-27T22:28:49.754Z,101906.47
2022-12-27T22:31:24.239Z,101909.91
2022-12-27T22:33:51.592Z,101899.31
2022-12-27T22:36:26.360Z,101897.78
2022-12-27T22:38:55.598Z,101897.91
2022-12-27T22:41:30.917Z,101884.13
2022-12-27T22:44:08.687Z,101891.16
2022-12-27T22:47:24.505Z,101882.50
2022-12-27T22:49:22.781Z,101886.91
2022-12-27T22:51:49.661Z,101876.59
2022-12-27T22:54:16.236Z,101874.91
2022-12-27T22:56:43.852Z,101869.81
2022-12-27T22:59:16.465Z,101860.34
2022-12-27T23:01:44.961Z,101859.50
2022-12-27T23:04:12.864Z,101844.78
2022-12-27T23:06:40.657Z,101840.53
2022-12-27T23:09:07.925Z,101826.75
2022-12-27T23:11:38.105Z,101822.47
2022-12-27T23:14:07.327Z,101821.66
2022-12-27T23:16:38.932Z,101807.88
2022-12-27T23:19:06.847Z,101799.13
2022-12-27T23:21:33.551Z,101799.13
2022-12-27T23:24:00.141Z,101789.59
2022-12-27T23:26:27.741Z,101793.06
2022-12-27T23:28:54.314Z,101791.41
2022-12-27T23:31:22.705Z,101782.63
2022-12-27T23:33:49.287Z,101777.41
2022-12-27T23:36:16.348Z,101776.44
2022-12-27T23:38:44.050Z,101771.31
2022-12-27T23:41:15.621Z,101773.94
2022-12-27T23:43:52.246Z,101761.72
2022-12-27T23:46:29.613Z,101771.22
2022-12-27T23:48:58.160Z,101766.00
2022-12-27T23:51:25.058Z,101758.97
2022-12-27T23:53:52.115Z,101742.50
2022-12-27T23:56:22.184Z,101737.28
2022-12-27T23:58:50.595Z,101724.22
